Flight Track Log - Related Links

Times and Time Zones

All times are in EDT time to prevent confusion due to time zone crossing. See the SWA2166 flight status page for this flight to view local times or setup timezone preferences in your user account.

Time Position Orientation Groundspeed Altitude Reporting Facility
EDT Latitude Longitude Course Direction KTS MPH feet Rate Location/Type
Wed 12:28:03 PM 41.8028 -87.6478 85° East 218 251 3,500  Level Chicago Center
Wed 12:29:04 PM 41.8078 -87.5436 86° East 256 295 6,600 3,561 Climbing Chicago Center
Wed 12:30:06 PM 41.8167 -87.4200 84° East 321 369 10,800 3,902 Climbing Chicago Center
Wed 12:31:07 PM 41.8014 -87.2950 99° East 335 386 14,600 3,073 Climbing Chicago Center
Wed 12:32:09 PM 41.7753 -87.1394 103° East 352 405 17,100 2,537 Climbing Chicago Center
Wed 12:33:10 PM 41.7619 -87.0019 97° East 369 425 19,800 2,683 Climbing Chicago Center
Wed 12:34:12 PM 41.7633 -86.8436 89° East 415 478 22,600 2,903 Climbing Chicago Center
Wed 12:35:14 PM 41.7786 -86.6756 83° East 434 499 25,800 2,634 Climbing Chicago Center
Wed 12:36:15 PM 41.8006 -86.5097 80° East 447 514 28,000 2,049 Climbing Chicago Center
Wed 12:37:17 PM 41.8222 -86.3367 80° East 465 535 30,000 1,951 Climbing Chicago Center
Wed 12:38:18 PM 41.8450 -86.1581 80° East 481 554 32,000 2,195 Climbing Chicago Center
Wed 12:39:20 PM 41.8667 -85.9783 81° East 486 559 34,500 2,195 Climbing Chicago Center
Wed 12:40:21 PM 41.8886 -85.8050 80° East 474 545 36,500 1,610 Climbing Chicago Center
Wed 12:41:23 PM 41.9297 -85.6358 72° East 472 543 37,800 1,220 Climbing Chicago Center
Wed 12:42:24 PM 41.9778 -85.4647 69° East 480 552 39,000 780 Climbing Chicago Center
Wed 12:43:26 PM 42.0078 -85.2692 78° East 509 586 39,400 651 Climbing Chicago Center
Wed 12:44:33 PM 42.0139 -85.0692 88° East 472 543 40,400 756 Climbing Cleveland Center
Wed 12:45:33 PM 42.0092 -84.8678 92° East 479 551 41,000 300 Climbing Cleveland Center
Wed 12:46:33 PM 42.0011 -84.6883 93° East 484 557 41,000  Level Cleveland Center
Wed 12:47:33 PM 41.9931 -84.5061 93° East 484 557 41,000  Level Cleveland Center
Wed 12:48:33 PM 41.9864 -84.3267 93° East 484 557 41,000  Level Cleveland Center
Wed 12:49:33 PM 41.9811 -84.1700 93° East 479 551 41,000  Level Cleveland Center
Wed 12:50:33 PM 41.9717 -83.9933 94° East 473 544 41,000  Level Cleveland Center
Wed 12:51:33 PM 41.9628 -83.7975 93° East 473 544 41,000  Level Cleveland Center
Wed 12:52:33 PM 41.9594 -83.6214 91° East 479 551 41,000  Level Cleveland Center
Wed 12:53:33 PM 41.9764 -83.4433 83° East 479 551 41,000  Level Cleveland Center
Wed 12:54:33 PM 41.9975 -83.2656 81° East 479 551 41,000  Level Cleveland Center
Wed 12:55:33 PM 42.0161 -83.0872 82° East 484 557 41,000  Level Cleveland Center
Wed 12:56:33 PM 42.0322 -82.9092 83° East 484 557 41,000  Level Cleveland Center
Wed 12:57:33 PM 42.0525 -82.7308 81° East 479 551 41,000  Level Cleveland Center
Wed 12:58:33 PM 42.0617 -82.5578 86° East 479 551 41,000  Level Cleveland Center
Wed 12:59:33 PM 42.0897 -82.3739 78° East 484 557 41,000  Level Cleveland Center
Wed 01:00:33 PM 42.1028 -82.1981 84° East 485 558 41,000  Level Cleveland Center
Wed 01:01:34 PM 42.1217 -82.0389 81° East 480 552 41,000  Level Cleveland Center
Wed 01:02:33 PM 42.1383 -81.8600 83° East 480 552 41,000  Level Cleveland Center
Wed 01:03:33 PM 42.1528 -81.6839 84° East 480 552 41,000 -350 Level Cleveland Center
Wed 01:04:33 PM 42.1708 -81.5050 82° East 485 558 40,300 -800 Descending Cleveland Center
Wed 01:05:33 PM 42.1869 -81.3258 83° East 479 551 39,400 -650 Descending Cleveland Center
Wed 01:06:33 PM 42.2047 -81.1325 83° East 479 551 39,000 -300 Descending Cleveland Center
Wed 01:07:33 PM 42.2200 -80.9533 83° East 479 551 38,800 -550 Descending Cleveland Center
Wed 01:08:33 PM 42.2350 -80.7683 84° East 490 564 37,900 -900 Descending Cleveland Center
Wed 01:09:33 PM 42.2517 -80.5803 83° East 490 564 37,000 -450 Descending Cleveland Center
Wed 01:10:33 PM 42.2661 -80.3953 84° East 496 571 37,000  Level Cleveland Center
Wed 01:11:33 PM 42.2803 -80.2100 84° East 496 571 37,000  Level Cleveland Center
Wed 01:12:33 PM 42.2942 -80.0244 84° East 501 577 37,000  Level Cleveland Center
Wed 01:13:33 PM 42.3097 -79.8336 84° East 502 578 37,000  Level Cleveland Center
Wed 01:14:33 PM 42.3231 -79.6453 84° East 502 578 37,000  Level Cleveland Center
Wed 01:15:33 PM 42.3381 -79.4567 84° East 502 578 37,000  Level Cleveland Center
Wed 01:16:33 PM 42.3506 -79.2656 85° East 502 578 37,000  Level Cleveland Center
Wed 01:17:33 PM 42.3628 -79.0797 85° East 497 572 37,000  Level Cleveland Center
Wed 01:18:33 PM 42.3733 -78.9333 84° East 497 572 37,000  Level Cleveland Center
Wed 01:19:33 PM 42.3869 -78.7222 85° East 497 572 37,000  Level Cleveland Center
Wed 01:20:33 PM 42.4006 -78.5392 84° East 497 572 37,000  Level Cleveland Center
Wed 01:21:33 PM 42.4114 -78.3503 85° East 497 572 37,000  Level Cleveland Center
Wed 01:23:33 PM 42.4328 -77.9781 85° East 497 572 37,000  Level Cleveland Center
Wed 01:24:33 PM 42.4469 -77.7722 85° East 502 578 37,000  Level Cleveland Center
Wed 01:25:33 PM 42.4567 -77.5858 86° East 502 578 37,000  Level Cleveland Center
Wed 01:28:00 PM 42.4786 -77.1281 86° East 512 589 37,000  Level Boston Center
Wed 01:28:59 PM 42.4778 -76.9422 90° East 506 582 37,000  Level Boston Center
Wed 01:29:58 PM 42.4708 -76.7472 93° East 500 575 37,000  Level Boston Center
Wed 01:30:59 PM 42.4631 -76.5636 93° East 500 575 37,000  Level Boston Center
Wed 01:31:59 PM 42.4572 -76.3747 92° East 500 575 37,000  Level Boston Center
Wed 01:33:00 PM 42.4492 -76.1856 93° East 500 575 37,000  Level Boston Center
Wed 01:33:58 PM 42.4383 -75.9992 94° East 500 575 37,000  Level Boston Center
Wed 01:34:58 PM 42.4317 -75.8075 93° East 505 581 37,000  Level Boston Center
Wed 01:35:59 PM 42.4219 -75.6381 94° East 505 581 37,000  Level Boston Center
Wed 01:37:00 PM 42.4128 -75.4464 94° East 505 581 37,000  Level Boston Center
Wed 01:37:58 PM 42.4028 -75.2603 94° East 500 575 37,000  Level Boston Center
Wed 01:38:58 PM 42.3931 -75.0658 94° East 507 583 37,000 -149 Level Boston Center
Wed 01:39:59 PM 42.3806 -74.8797 95° East 507 583 36,700 -1,636 Descending Boston Center
Wed 01:40:59 PM 42.3697 -74.6939 94° East 500 575 33,700 -2,975 Descending Boston Center
Wed 01:42:00 PM 42.3586 -74.5025 94° East 500 575 30,700 -2,370 Descending Boston Center
Wed 01:42:58 PM 42.3472 -74.3222 95° East 494 568 29,000 -1,785 Descending Boston Center
Wed 01:44:01 PM 42.3378 -74.1394 94° East 494 568 27,100 -2,500 Descending Boston Center
Wed 01:44:58 PM 42.3256 -73.9564 95° East 488 562 24,000 -1,900 Descending Boston Center
Wed 01:46:01 PM 42.3133 -73.7878 96° East 476 548 23,300 -942 Descending Boston Center
Wed 01:46:59 PM 42.3050 -73.5967 93° East 462 532 22,100 -1,119 Descending Boston Center
Wed 01:47:59 PM 42.2919 -73.4364 96° East 449 517 21,100 -992 Descending Boston Center
Wed 01:49:00 PM 42.2783 -73.2847 97° East 429 494 20,100 -1,008 Descending Boston Center
Wed 01:49:58 PM 42.2525 -73.1272 102° East 423 487 19,100 -559 Descending Boston Center
Wed 01:50:58 PM 42.1842 -73.0200 131° Southeast 411 473 19,000 -50 Descending Boston Center
Wed 01:51:59 PM 42.0972 -72.8989 134° Southeast 411 473 19,000  Level Boston Center
Wed 01:53:00 PM 42.0174 -72.7679 129° Southeast  Level FlightAware
Wed 01:53:58 PM 41.9500 -72.6606 129° Southeast 412 474 19,000  Level Boston Center
Wed 01:54:19 PM 41.9292 -72.6242 128° Southeast 416 479 19,000 -984 Level Boston Center
Wed 01:54:59 PM 41.8814 -72.5433 128° Southeast 417 480 18,000 -1,701 Descending Boston Center
Wed 01:55:26 PM 41.8503 -72.4931 130° Southeast 406 467 17,100 -2,100 Descending Boston Center
Wed 01:55:59 PM 41.8106 -72.4289 130° Southeast 400 460 15,900 -2,300 Descending Boston Center
Wed 01:56:26 PM 41.7772 -72.3761 130° Southeast 395 455 14,800 -2,400 Descending Boston Center
Wed 01:56:59 PM 41.7417 -72.3178 129° Southeast 395 455 13,500 -2,262 Descending Boston Center
Wed 01:57:27 PM 41.7083 -72.2678 132° Southeast 386 444 12,500 -1,967 Descending Boston Center
Wed 01:58:00 PM 41.6833 -72.2178 124° Southeast 390 449 11,500 -1,500 Descending Boston Center
Wed 01:58:27 PM 41.6436 -72.1539 130° Southeast 376 433 11,000 -517 Descending Boston Center
Wed 01:58:58 PM 41.6142 -72.0986 125° Southeast 371 427 11,000  Level Boston Center
Wed 01:59:28 PM 41.5806 -72.0489 132° Southeast 359 413 11,000 -590 Level Boston Center
Wed 01:59:59 PM 41.5617 -72.0044 120° Southeast 358 412 10,400 -1,279 Descending Boston Center
Wed 02:00:29 PM 41.5428 -71.9408 112° Southeast 334 384 9,700 -1,912 Descending Boston Center
Wed 02:01:30 PM 41.5672 -71.8297 74° East 305 351 7,500 -2,231 Descending Boston Center
Wed 02:02:30 PM 41.5875 -71.7183 76° East 300 345 5,200 -1,736 Descending Boston Center
Wed 02:03:31 PM 41.6075 -71.6211 75° East 258 297 4,000 -843 Descending Boston Center
Wed 02:04:31 PM 41.6236 -71.5458 74° East 206 237 3,500 -893 Descending Boston Center
Wed 02:05:32 PM 41.6442 -71.4956 61° Northeast 158 182 2,200 -1,328 Descending Boston Center
Wed 02:06:33 PM 41.6833 -71.4617 33° Northeast 147 169 800 -1,377 Descending Boston Center
Wed 02:08:00 PM 41.7167 -71.4167 37° Northeast  Level FlightAware
Wed 02:15:00 PM 41.7240 -71.4282 37° Northeast  Level Estimated
Wed 02:16:00 PM 41.7240 -71.4282 37° Northeast  Level Estimated

Login

Don't have an account? Register now (free) for customized features, flight alerts, and more!